sensor_id;sensor_type;location;lat;lon;timestamp;P1;durP1;ratioP1;P2;durP2;ratioP2
31438;SDS011;18062;48.872;9.220;2023-03-04T00:01:13;4.27;;;1.87;;
31438;SDS011;18062;48.872;9.220;2023-03-04T00:03:40;2.40;;;2.20;;
31438;SDS011;18062;48.872;9.220;2023-03-04T00:06:06;1.33;;;1.23;;
31438;SDS011;18062;48.872;9.220;2023-03-04T00:08:32;4.50;;;1.87;;
31438;SDS011;18062;48.872;9.220;2023-03-04T00:10:58;3.50;;;2.00;;
31438;SDS011;18062;48.872;9.220;2023-03-04T00:13:24;2.23;;;1.60;;
31438;SDS011;18062;48.872;9.220;2023-03-04T00:15:50;1.57;;;1.30;;
31438;SDS011;18062;48.872;9.220;2023-03-04T00:18:17;1.57;;;1.47;;
31438;SDS011;18062;48.872;9.220;2023-03-04T00:20:45;1.20;;;1.10;;
31438;SDS011;18062;48.872;9.220;2023-03-04T00:23:11;2.07;;;1.50;;
31438;SDS011;18062;48.872;9.220;2023-03-04T00:25:37;0.93;;;0.93;;
31438;SDS011;18062;48.872;9.220;2023-03-04T00:28:03;1.73;;;1.63;;
31438;SDS011;18062;48.872;9.220;2023-03-04T00:30:29;0.83;;;0.83;;
31438;SDS011;18062;48.872;9.220;2023-03-04T00:32:55;1.37;;;1.33;;
31438;SDS011;18062;48.872;9.220;2023-03-04T00:35:21;1.40;;;0.77;;
31438;SDS011;18062;48.872;9.220;2023-03-04T00:37:47;0.87;;;0.87;;
31438;SDS011;18062;48.872;9.220;2023-03-04T00:40:13;1.97;;;1.13;;
31438;SDS011;18062;48.872;9.220;2023-03-04T00:42:39;1.93;;;1.73;;
31438;SDS011;18062;48.872;9.220;2023-03-04T00:45:05;0.83;;;0.83;;
31438;SDS011;18062;48.872;9.220;2023-03-04T00:47:31;1.50;;;1.00;;
31438;SDS011;18062;48.872;9.220;2023-03-04T00:49:57;1.23;;;1.23;;
31438;SDS011;18062;48.872;9.220;2023-03-04T00:52:23;2.43;;;1.67;;
31438;SDS011;18062;48.872;9.220;2023-03-04T00:54:49;0.50;;;0.50;;
31438;SDS011;18062;48.872;9.220;2023-03-04T00:57:15;1.57;;;1.47;;
31438;SDS011;18062;48.872;9.220;2023-03-04T00:59:41;2.37;;;2.10;;
31438;SDS011;18062;48.872;9.220;2023-03-04T01:02:08;2.90;;;1.70;;
31438;SDS011;18062;48.872;9.220;2023-03-04T01:04:34;0.60;;;0.60;;
31438;SDS011;18062;48.872;9.220;2023-03-04T01:07:00;0.70;;;0.70;;
31438;SDS011;18062;48.872;9.220;2023-03-04T01:09:26;0.80;;;0.80;;
31438;SDS011;18062;48.872;9.220;2023-03-04T01:11:52;1.43;;;1.33;;
31438;SDS011;18062;48.872;9.220;2023-03-04T01:14:18;0.77;;;0.77;;
31438;SDS011;18062;48.872;9.220;2023-03-04T01:16:44;1.67;;;1.57;;
31438;SDS011;18062;48.872;9.220;2023-03-04T01:19:10;0.90;;;0.90;;
31438;SDS011;18062;48.872;9.220;2023-03-04T01:21:36;0.60;;;0.60;;
31438;SDS011;18062;48.872;9.220;2023-03-04T01:24:02;1.00;;;1.00;;
31438;SDS011;18062;48.872;9.220;2023-03-04T01:26:29;1.17;;;1.17;;
31438;SDS011;18062;48.872;9.220;2023-03-04T01:28:54;5.37;;;1.20;;
31438;SDS011;18062;48.872;9.220;2023-03-04T01:31:20;1.30;;;1.13;;
31438;SDS011;18062;48.872;9.220;2023-03-04T01:33:47;0.80;;;0.80;;
31438;SDS011;18062;48.872;9.220;2023-03-04T01:36:12;3.70;;;1.80;;
31438;SDS011;18062;48.872;9.220;2023-03-04T01:38:38;1.67;;;1.57;;
31438;SDS011;18062;48.872;9.220;2023-03-04T01:41:05;1.40;;;1.30;;
31438;SDS011;18062;48.872;9.220;2023-03-04T01:43:31;3.40;;;1.93;;
31438;SDS011;18062;48.872;9.220;2023-03-04T01:45:57;1.73;;;1.33;;
31438;SDS011;18062;48.872;9.220;2023-03-04T01:48:25;5.73;;;1.80;;
31438;SDS011;18062;48.872;9.220;2023-03-04T01:50:51;1.17;;;0.77;;
31438;SDS011;18062;48.872;9.220;2023-03-04T01:53:22;0.60;;;0.60;;
31438;SDS011;18062;48.872;9.220;2023-03-04T01:55:48;2.30;;;1.60;;
31438;SDS011;18062;48.872;9.220;2023-03-04T01:58:14;0.70;;;0.70;;
31438;SDS011;18062;48.872;9.220;2023-03-04T02:00:40;0.67;;;0.67;;
31438;SDS011;18062;48.872;9.220;2023-03-04T02:03:08;1.07;;;0.43;;
31438;SDS011;18062;48.872;9.220;2023-03-04T02:05:37;0.50;;;0.50;;
31438;SDS011;18062;48.872;9.220;2023-03-04T02:08:03;2.30;;;1.70;;
31438;SDS011;18062;48.872;9.220;2023-03-04T02:10:29;0.70;;;0.70;;
31438;SDS011;18062;48.872;9.220;2023-03-04T02:12:56;2.03;;;1.83;;
31438;SDS011;18062;48.872;9.220;2023-03-04T02:15:22;0.60;;;0.60;;
31438;SDS011;18062;48.872;9.220;2023-03-04T02:17:48;0.63;;;0.63;;
31438;SDS011;18062;48.872;9.220;2023-03-04T02:20:17;0.40;;;0.40;;
31438;SDS011;18062;48.872;9.220;2023-03-04T02:22:49;1.07;;;0.97;;
31438;SDS011;18062;48.872;9.220;2023-03-04T02:25:23;9.53;;;0.67;;
31438;SDS011;18062;48.872;9.220;2023-03-04T02:27:51;1.63;;;1.53;;
31438;SDS011;18062;48.872;9.220;2023-03-04T02:30:19;0.40;;;0.40;;
31438;SDS011;18062;48.872;9.220;2023-03-04T02:32:45;2.10;;;1.33;;
31438;SDS011;18062;48.872;9.220;2023-03-04T02:35:15;0.77;;;0.77;;
31438;SDS011;18062;48.872;9.220;2023-03-04T02:37:42;0.40;;;0.40;;
31438;SDS011;18062;48.872;9.220;2023-03-04T02:40:11;1.87;;;1.70;;
31438;SDS011;18062;48.872;9.220;2023-03-04T02:42:39;0.80;;;0.80;;
31438;SDS011;18062;48.872;9.220;2023-03-04T02:45:05;1.43;;;1.33;;
31438;SDS011;18062;48.872;9.220;2023-03-04T02:47:31;2.57;;;1.87;;
31438;SDS011;18062;48.872;9.220;2023-03-04T02:49:57;0.50;;;0.43;;
31438;SDS011;18062;48.872;9.220;2023-03-04T02:52:25;0.40;;;0.40;;
31438;SDS011;18062;48.872;9.220;2023-03-04T02:54:51;0.60;;;0.60;;
31438;SDS011;18062;48.872;9.220;2023-03-04T02:57:17;0.70;;;0.70;;
31438;SDS011;18062;48.872;9.220;2023-03-04T02:59:43;1.17;;;1.13;;
31438;SDS011;18062;48.872;9.220;2023-03-04T03:02:09;0.63;;;0.63;;
31438;SDS011;18062;48.872;9.220;2023-03-04T03:04:36;0.77;;;0.60;;
31438;SDS011;18062;48.872;9.220;2023-03-04T03:07:02;0.40;;;0.40;;
31438;SDS011;18062;48.872;9.220;2023-03-04T03:09:28;1.20;;;1.20;;
31438;SDS011;18062;48.872;9.220;2023-03-04T03:11:54;2.33;;;2.13;;
31438;SDS011;18062;48.872;9.220;2023-03-04T03:14:20;2.70;;;0.93;;
31438;SDS011;18062;48.872;9.220;2023-03-04T03:16:46;0.20;;;0.20;;
31438;SDS011;18062;48.872;9.220;2023-03-04T03:19:12;0.40;;;0.40;;
31438;SDS011;18062;48.872;9.220;2023-03-04T03:21:38;1.37;;;1.00;;
31438;SDS011;18062;48.872;9.220;2023-03-04T03:24:04;0.33;;;0.33;;
31438;SDS011;18062;48.872;9.220;2023-03-04T03:26:30;1.13;;;0.80;;
31438;SDS011;18062;48.872;9.220;2023-03-04T03:28:56;0.47;;;0.47;;
31438;SDS011;18062;48.872;9.220;2023-03-04T03:31:22;0.90;;;0.90;;
31438;SDS011;18062;48.872;9.220;2023-03-04T03:33:48;0.90;;;0.90;;
31438;SDS011;18062;48.872;9.220;2023-03-04T03:36:14;1.13;;;1.13;;
31438;SDS011;18062;48.872;9.220;2023-03-04T03:38:40;0.90;;;0.90;;
31438;SDS011;18062;48.872;9.220;2023-03-04T03:41:06;1.00;;;0.93;;
31438;SDS011;18062;48.872;9.220;2023-03-04T03:43:32;0.50;;;0.50;;
31438;SDS011;18062;48.872;9.220;2023-03-04T03:45:58;0.93;;;0.93;;
31438;SDS011;18062;48.872;9.220;2023-03-04T03:48:24;0.70;;;0.70;;
31438;SDS011;18062;48.872;9.220;2023-03-04T03:50:50;0.93;;;0.70;;
31438;SDS011;18062;48.872;9.220;2023-03-04T03:53:16;2.17;;;1.50;;
31438;SDS011;18062;48.872;9.220;2023-03-04T03:55:42;0.50;;;0.50;;
31438;SDS011;18062;48.872;9.220;2023-03-04T03:58:08;0.80;;;0.60;;
31438;SDS011;18062;48.872;9.220;2023-03-04T04:00:34;0.80;;;0.80;;
31438;SDS011;18062;48.872;9.220;2023-03-04T04:03:00;0.60;;;0.60;;
31438;SDS011;18062;48.872;9.220;2023-03-04T04:05:26;0.30;;;0.30;;
31438;SDS011;18062;48.872;9.220;2023-03-04T04:07:52;0.70;;;0.70;;
31438;SDS011;18062;48.872;9.220;2023-03-04T04:10:18;1.00;;;1.00;;
31438;SDS011;18062;48.872;9.220;2023-03-04T04:12:45;0.43;;;0.43;;
31438;SDS011;18062;48.872;9.220;2023-03-04T04:15:11;1.20;;;1.03;;
31438;SDS011;18062;48.872;9.220;2023-03-04T04:17:37;0.40;;;0.40;;
31438;SDS011;18062;48.872;9.220;2023-03-04T04:20:05;1.60;;;0.67;;
31438;SDS011;18062;48.872;9.220;2023-03-04T04:22:31;1.00;;;0.60;;
31438;SDS011;18062;48.872;9.220;2023-03-04T04:24:57;0.50;;;0.50;;
31438;SDS011;18062;48.872;9.220;2023-03-04T04:27:23;0.30;;;0.30;;
31438;SDS011;18062;48.872;9.220;2023-03-04T04:29:49;0.50;;;0.50;;
31438;SDS011;18062;48.872;9.220;2023-03-04T04:32:15;1.60;;;1.17;;
31438;SDS011;18062;48.872;9.220;2023-03-04T04:34:41;0.80;;;0.80;;
31438;SDS011;18062;48.872;9.220;2023-03-04T04:37:07;1.50;;;1.27;;
31438;SDS011;18062;48.872;9.220;2023-03-04T04:39:33;1.00;;;1.00;;
31438;SDS011;18062;48.872;9.220;2023-03-04T04:41:59;1.30;;;1.30;;
31438;SDS011;18062;48.872;9.220;2023-03-04T04:44:25;0.43;;;0.43;;
31438;SDS011;18062;48.872;9.220;2023-03-04T04:46:51;2.47;;;1.67;;
31438;SDS011;18062;48.872;9.220;2023-03-04T04:49:17;0.70;;;0.70;;
31438;SDS011;18062;48.872;9.220;2023-03-04T04:51:43;0.60;;;0.60;;
31438;SDS011;18062;48.872;9.220;2023-03-04T04:54:09;0.77;;;0.77;;
31438;SDS011;18062;48.872;9.220;2023-03-04T04:56:36;1.50;;;1.40;;
31438;SDS011;18062;48.872;9.220;2023-03-04T04:59:03;0.60;;;0.60;;
31438;SDS011;18062;48.872;9.220;2023-03-04T05:01:30;1.03;;;0.97;;
31438;SDS011;18062;48.872;9.220;2023-03-04T05:03:56;3.57;;;1.27;;
31438;SDS011;18062;48.872;9.220;2023-03-04T05:06:22;0.40;;;0.40;;
31438;SDS011;18062;48.872;9.220;2023-03-04T05:08:49;0.83;;;0.83;;
31438;SDS011;18062;48.872;9.220;2023-03-04T05:11:15;1.17;;;1.03;;
31438;SDS011;18062;48.872;9.220;2023-03-04T05:13:41;0.60;;;0.60;;
31438;SDS011;18062;48.872;9.220;2023-03-04T05:16:08;0.73;;;0.73;;
31438;SDS011;18062;48.872;9.220;2023-03-04T05:18:34;2.03;;;1.93;;
31438;SDS011;18062;48.872;9.220;2023-03-04T05:21:00;0.60;;;0.60;;
31438;SDS011;18062;48.872;9.220;2023-03-04T05:23:27;2.20;;;1.03;;
31438;SDS011;18062;48.872;9.220;2023-03-04T05:25:53;1.03;;;0.93;;
31438;SDS011;18062;48.872;9.220;2023-03-04T05:28:20;8.13;;;2.03;;
31438;SDS011;18062;48.872;9.220;2023-03-04T05:30:46;0.40;;;0.40;;
31438;SDS011;18062;48.872;9.220;2023-03-04T05:33:13;0.57;;;0.57;;
31438;SDS011;18062;48.872;9.220;2023-03-04T05:35:40;0.77;;;0.77;;
31438;SDS011;18062;48.872;9.220;2023-03-04T05:38:07;25.50;;;1.67;;
31438;SDS011;18062;48.872;9.220;2023-03-04T05:40:34;0.83;;;0.83;;
31438;SDS011;18062;48.872;9.220;2023-03-04T05:43:00;1.23;;;1.13;;
31438;SDS011;18062;48.872;9.220;2023-03-04T05:45:26;0.40;;;0.40;;
31438;SDS011;18062;48.872;9.220;2023-03-04T05:47:52;1.70;;;0.80;;
31438;SDS011;18062;48.872;9.220;2023-03-04T05:50:18;1.03;;;0.97;;
31438;SDS011;18062;48.872;9.220;2023-03-04T05:52:45;0.97;;;0.90;;
31438;SDS011;18062;48.872;9.220;2023-03-04T05:55:11;6.13;;;1.30;;
31438;SDS011;18062;48.872;9.220;2023-03-04T05:57:37;2.00;;;1.00;;
31438;SDS011;18062;48.872;9.220;2023-03-04T06:00:04;3.03;;;0.90;;
31438;SDS011;18062;48.872;9.220;2023-03-04T06:02:33;1.37;;;1.30;;
31438;SDS011;18062;48.872;9.220;2023-03-04T06:04:59;4.80;;;1.30;;
31438;SDS011;18062;48.872;9.220;2023-03-04T06:07:25;0.80;;;0.80;;
31438;SDS011;18062;48.872;9.220;2023-03-04T06:09:51;1.97;;;1.63;;
31438;SDS011;18062;48.872;9.220;2023-03-04T06:12:17;3.63;;;1.67;;
31438;SDS011;18062;48.872;9.220;2023-03-04T06:14:43;4.53;;;1.07;;
31438;SDS011;18062;48.872;9.220;2023-03-04T06:17:09;1.70;;;1.07;;
31438;SDS011;18062;48.872;9.220;2023-03-04T06:19:35;0.40;;;0.40;;
31438;SDS011;18062;48.872;9.220;2023-03-04T06:22:06;1.10;;;1.10;;
31438;SDS011;18062;48.872;9.220;2023-03-04T06:24:32;1.13;;;1.03;;
31438;SDS011;18062;48.872;9.220;2023-03-04T06:26:58;1.30;;;1.20;;
31438;SDS011;18062;48.872;9.220;2023-03-04T06:29:24;0.60;;;0.60;;
31438;SDS011;18062;48.872;9.220;2023-03-04T06:31:50;0.70;;;0.70;;
31438;SDS011;18062;48.872;9.220;2023-03-04T06:34:16;0.63;;;0.57;;
31438;SDS011;18062;48.872;9.220;2023-03-04T06:36:42;0.70;;;0.70;;
31438;SDS011;18062;48.872;9.220;2023-03-04T06:39:08;0.50;;;0.50;;
31438;SDS011;18062;48.872;9.220;2023-03-04T06:41:34;0.83;;;0.83;;
31438;SDS011;18062;48.872;9.220;2023-03-04T06:44:00;0.27;;;0.27;;
31438;SDS011;18062;48.872;9.220;2023-03-04T06:46:26;0.70;;;0.70;;
31438;SDS011;18062;48.872;9.220;2023-03-04T06:48:52;0.53;;;0.53;;
31438;SDS011;18062;48.872;9.220;2023-03-04T06:51:18;0.63;;;0.57;;
31438;SDS011;18062;48.872;9.220;2023-03-04T06:53:45;0.57;;;0.57;;
31438;SDS011;18062;48.872;9.220;2023-03-04T06:56:11;0.57;;;0.57;;
31438;SDS011;18062;48.872;9.220;2023-03-04T06:58:40;0.47;;;0.47;;
31438;SDS011;18062;48.872;9.220;2023-03-04T07:01:10;3.30;;;1.40;;
31438;SDS011;18062;48.872;9.220;2023-03-04T07:03:36;0.73;;;0.67;;
31438;SDS011;18062;48.872;9.220;2023-03-04T07:06:02;1.00;;;1.00;;
31438;SDS011;18062;48.872;9.220;2023-03-04T07:08:28;0.50;;;0.50;;
31438;SDS011;18062;48.872;9.220;2023-03-04T07:10:54;0.50;;;0.50;;
31438;SDS011;18062;48.872;9.220;2023-03-04T07:13:20;0.70;;;0.70;;
31438;SDS011;18062;48.872;9.220;2023-03-04T07:15:46;2.00;;;1.33;;
31438;SDS011;18062;48.872;9.220;2023-03-04T07:18:12;7.20;;;1.97;;
31438;SDS011;18062;48.872;9.220;2023-03-04T07:20:39;2.27;;;2.07;;
31438;SDS011;18062;48.872;9.220;2023-03-04T07:23:05;1.63;;;1.17;;
31438;SDS011;18062;48.872;9.220;2023-03-04T07:25:31;1.37;;;1.27;;
31438;SDS011;18062;48.872;9.220;2023-03-04T07:27:57;1.73;;;1.60;;
31438;SDS011;18062;48.872;9.220;2023-03-04T07:30:23;7.30;;;2.63;;
31438;SDS011;18062;48.872;9.220;2023-03-04T07:32:49;2.17;;;1.97;;
31438;SDS011;18062;48.872;9.220;2023-03-04T07:35:17;7.13;;;1.93;;
31438;SDS011;18062;48.872;9.220;2023-03-04T07:37:43;3.77;;;2.33;;
31438;SDS011;18062;48.872;9.220;2023-03-04T07:40:10;1.47;;;1.37;;
31438;SDS011;18062;48.872;9.220;2023-03-04T07:42:36;1.50;;;1.40;;
31438;SDS011;18062;48.872;9.220;2023-03-04T07:45:03;2.90;;;2.33;;
31438;SDS011;18062;48.872;9.220;2023-03-04T07:47:29;2.03;;;1.60;;
31438;SDS011;18062;48.872;9.220;2023-03-04T07:49:55;5.23;;;1.33;;
31438;SDS011;18062;48.872;9.220;2023-03-04T07:52:21;7.83;;;2.00;;
31438;SDS011;18062;48.872;9.220;2023-03-04T07:54:47;3.63;;;2.57;;
31438;SDS011;18062;48.872;9.220;2023-03-04T07:57:13;1.40;;;1.30;;
31438;SDS011;18062;48.872;9.220;2023-03-04T07:59:39;3.20;;;1.10;;
31438;SDS011;18062;48.872;9.220;2023-03-04T08:02:05;7.27;;;2.53;;
31438;SDS011;18062;48.872;9.220;2023-03-04T08:04:31;5.83;;;1.83;;
31438;SDS011;18062;48.872;9.220;2023-03-04T08:06:58;1.63;;;1.53;;
31438;SDS011;18062;48.872;9.220;2023-03-04T08:09:24;2.43;;;1.63;;
31438;SDS011;18062;48.872;9.220;2023-03-04T08:11:50;2.07;;;1.77;;
31438;SDS011;18062;48.872;9.220;2023-03-04T08:14:16;6.03;;;2.93;;
31438;SDS011;18062;48.872;9.220;2023-03-04T08:16:42;4.57;;;2.77;;
31438;SDS011;18062;48.872;9.220;2023-03-04T08:19:09;5.20;;;1.93;;
31438;SDS011;18062;48.872;9.220;2023-03-04T08:21:35;8.00;;;2.37;;
31438;SDS011;18062;48.872;9.220;2023-03-04T08:24:02;4.07;;;2.33;;
31438;SDS011;18062;48.872;9.220;2023-03-04T08:26:33;5.20;;;1.60;;
31438;SDS011;18062;48.872;9.220;2023-03-04T08:29:00;7.47;;;3.03;;
31438;SDS011;18062;48.872;9.220;2023-03-04T08:31:29;4.50;;;2.33;;
31438;SDS011;18062;48.872;9.220;2023-03-04T08:33:55;3.80;;;2.33;;
31438;SDS011;18062;48.872;9.220;2023-03-04T08:36:21;4.10;;;1.90;;
31438;SDS011;18062;48.872;9.220;2023-03-04T08:38:47;4.43;;;2.10;;
31438;SDS011;18062;48.872;9.220;2023-03-04T08:41:15;4.20;;;2.03;;
31438;SDS011;18062;48.872;9.220;2023-03-04T08:43:42;5.60;;;3.23;;
31438;SDS011;18062;48.872;9.220;2023-03-04T08:46:08;2.73;;;2.33;;
31438;SDS011;18062;48.872;9.220;2023-03-04T08:48:34;4.40;;;2.17;;
31438;SDS011;18062;48.872;9.220;2023-03-04T08:51:06;2.63;;;2.43;;
31438;SDS011;18062;48.872;9.220;2023-03-04T08:53:32;3.63;;;1.47;;
31438;SDS011;18062;48.872;9.220;2023-03-04T08:55:58;6.40;;;2.37;;
31438;SDS011;18062;48.872;9.220;2023-03-04T08:58:24;4.00;;;2.53;;
31438;SDS011;18062;48.872;9.220;2023-03-04T09:00:50;6.87;;;2.23;;
31438;SDS011;18062;48.872;9.220;2023-03-04T09:03:16;5.70;;;2.10;;
31438;SDS011;18062;48.872;9.220;2023-03-04T09:05:44;4.17;;;2.50;;
31438;SDS011;18062;48.872;9.220;2023-03-04T09:08:10;3.67;;;2.80;;
31438;SDS011;18062;48.872;9.220;2023-03-04T09:10:36;3.47;;;1.87;;
31438;SDS011;18062;48.872;9.220;2023-03-04T09:13:02;2.43;;;2.13;;
31438;SDS011;18062;48.872;9.220;2023-03-04T09:15:28;5.47;;;2.67;;
31438;SDS011;18062;48.872;9.220;2023-03-04T09:17:54;4.10;;;2.20;;
31438;SDS011;18062;48.872;9.220;2023-03-04T09:20:20;4.47;;;2.87;;
31438;SDS011;18062;48.872;9.220;2023-03-04T09:22:47;1.93;;;1.70;;
31438;SDS011;18062;48.872;9.220;2023-03-04T09:25:13;4.73;;;2.23;;
31438;SDS011;18062;48.872;9.220;2023-03-04T09:27:39;4.57;;;2.77;;
31438;SDS011;18062;48.872;9.220;2023-03-04T09:30:06;4.10;;;2.83;;
31438;SDS011;18062;48.872;9.220;2023-03-04T09:32:32;8.50;;;3.17;;
31438;SDS011;18062;48.872;9.220;2023-03-04T09:34:58;3.80;;;2.30;;
31438;SDS011;18062;48.872;9.220;2023-03-04T09:37:24;7.23;;;2.23;;
31438;SDS011;18062;48.872;9.220;2023-03-04T09:39:50;3.90;;;2.17;;
31438;SDS011;18062;48.872;9.220;2023-03-04T09:42:21;4.00;;;2.87;;
31438;SDS011;18062;48.872;9.220;2023-03-04T09:44:49;3.57;;;1.70;;
31438;SDS011;18062;48.872;9.220;2023-03-04T09:47:16;4.57;;;2.27;;
31438;SDS011;18062;48.872;9.220;2023-03-04T09:49:49;3.87;;;2.53;;
31438;SDS011;18062;48.872;9.220;2023-03-04T09:52:22;4.37;;;3.13;;
31438;SDS011;18062;48.872;9.220;2023-03-04T09:57:46;3.80;;;2.00;;
31438;SDS011;18062;48.872;9.220;2023-03-04T10:03:05;2.50;;;1.83;;
31438;SDS011;18062;48.872;9.220;2023-03-04T10:05:39;3.37;;;1.83;;
31438;SDS011;18062;48.872;9.220;2023-03-04T10:10:39;5.33;;;2.60;;
31438;SDS011;18062;48.872;9.220;2023-03-04T10:13:10;2.97;;;2.20;;
31438;SDS011;18062;48.872;9.220;2023-03-04T10:15:39;5.67;;;2.50;;
31438;SDS011;18062;48.872;9.220;2023-03-04T10:18:17;4.33;;;2.70;;
31438;SDS011;18062;48.872;9.220;2023-03-04T10:23:15;7.83;;;2.50;;
31438;SDS011;18062;48.872;9.220;2023-03-04T10:25:43;4.70;;;3.30;;
31438;SDS011;18062;48.872;9.220;2023-03-04T10:28:17;8.13;;;3.17;;
31438;SDS011;18062;48.872;9.220;2023-03-04T10:30:47;3.50;;;2.53;;
31438;SDS011;18062;48.872;9.220;2023-03-04T10:33:15;5.73;;;2.47;;
31438;SDS011;18062;48.872;9.220;2023-03-04T10:35:42;6.30;;;2.73;;
31438;SDS011;18062;48.872;9.220;2023-03-04T10:38:09;2.83;;;1.93;;
31438;SDS011;18062;48.872;9.220;2023-03-04T10:40:38;6.57;;;2.60;;
31438;SDS011;18062;48.872;9.220;2023-03-04T10:43:04;6.37;;;2.83;;
31438;SDS011;18062;48.872;9.220;2023-03-04T10:45:32;3.83;;;2.43;;
31438;SDS011;18062;48.872;9.220;2023-03-04T10:48:02;7.43;;;3.23;;
31438;SDS011;18062;48.872;9.220;2023-03-04T10:50:28;6.77;;;2.73;;
31438;SDS011;18062;48.872;9.220;2023-03-04T10:52:54;4.93;;;3.17;;
31438;SDS011;18062;48.872;9.220;2023-03-04T10:55:22;1.67;;;1.57;;
31438;SDS011;18062;48.872;9.220;2023-03-04T10:58:12;4.27;;;3.30;;
31438;SDS011;18062;48.872;9.220;2023-03-04T11:00:35;3.70;;;1.93;;
31438;SDS011;18062;48.872;9.220;2023-03-04T11:05:46;3.83;;;2.53;;
31438;SDS011;18062;48.872;9.220;2023-03-04T11:08:19;6.87;;;2.77;;
31438;SDS011;18062;48.872;9.220;2023-03-04T11:10:46;5.10;;;3.30;;
31438;SDS011;18062;48.872;9.220;2023-03-04T11:15:53;4.50;;;3.40;;
31438;SDS011;18062;48.872;9.220;2023-03-04T11:18:22;7.93;;;3.47;;
31438;SDS011;18062;48.872;9.220;2023-03-04T11:20:50;8.53;;;4.07;;
31438;SDS011;18062;48.872;9.220;2023-03-04T11:23:18;4.63;;;2.00;;
31438;SDS011;18062;48.872;9.220;2023-03-04T11:26:28;5.47;;;3.17;;
31438;SDS011;18062;48.872;9.220;2023-03-04T11:31:12;4.40;;;2.97;;
31438;SDS011;18062;48.872;9.220;2023-03-04T11:33:44;5.37;;;2.97;;
31438;SDS011;18062;48.872;9.220;2023-03-04T11:38:57;5.53;;;2.50;;
31438;SDS011;18062;48.872;9.220;2023-03-04T11:43:49;2.50;;;2.13;;
31438;SDS011;18062;48.872;9.220;2023-03-04T11:54:30;4.63;;;2.87;;
31438;SDS011;18062;48.872;9.220;2023-03-04T11:56:59;5.63;;;3.07;;
31438;SDS011;18062;48.872;9.220;2023-03-04T12:02:19;4.77;;;3.07;;
31438;SDS011;18062;48.872;9.220;2023-03-04T12:07:49;3.33;;;2.20;;
31438;SDS011;18062;48.872;9.220;2023-03-04T12:20:52;6.07;;;3.10;;
31438;SDS011;18062;48.872;9.220;2023-03-04T12:23:30;4.70;;;2.80;;
31438;SDS011;18062;48.872;9.220;2023-03-04T12:36:44;3.80;;;2.60;;
31438;SDS011;18062;48.872;9.220;2023-03-04T12:42:11;4.97;;;3.33;;
31438;SDS011;18062;48.872;9.220;2023-03-04T12:52:43;7.10;;;2.73;;
31438;SDS011;18062;48.872;9.220;2023-03-04T12:55:14;6.63;;;3.47;;
31438;SDS011;18062;48.872;9.220;2023-03-04T12:57:41;4.93;;;3.00;;
31438;SDS011;18062;48.872;9.220;2023-03-04T13:02:56;7.93;;;3.33;;
31438;SDS011;18062;48.872;9.220;2023-03-04T13:10:34;6.27;;;3.03;;
31438;SDS011;18062;48.872;9.220;2023-03-04T13:13:01;4.83;;;2.50;;
31438;SDS011;18062;48.872;9.220;2023-03-04T13:15:29;7.80;;;3.00;;
31438;SDS011;18062;48.872;9.220;2023-03-04T13:17:59;3.53;;;2.70;;
31438;SDS011;18062;48.872;9.220;2023-03-04T13:43:26;1.83;;;1.70;;
31438;SDS011;18062;48.872;9.220;2023-03-04T13:45:52;9.27;;;2.77;;
31438;SDS011;18062;48.872;9.220;2023-03-04T13:48:29;4.57;;;2.63;;
31438;SDS011;18062;48.872;9.220;2023-03-04T13:50:55;4.00;;;2.67;;
31438;SDS011;18062;48.872;9.220;2023-03-04T13:58:33;10.20;;;3.77;;
31438;SDS011;18062;48.872;9.220;2023-03-04T14:00:59;3.77;;;2.87;;
31438;SDS011;18062;48.872;9.220;2023-03-04T14:03:26;6.87;;;2.50;;
31438;SDS011;18062;48.872;9.220;2023-03-04T14:08:38;4.43;;;2.37;;
31438;SDS011;18062;48.872;9.220;2023-03-04T14:11:04;5.30;;;3.00;;
31438;SDS011;18062;48.872;9.220;2023-03-04T14:13:36;6.37;;;2.87;;
31438;SDS011;18062;48.872;9.220;2023-03-04T14:16:02;4.30;;;2.87;;
31438;SDS011;18062;48.872;9.220;2023-03-04T14:18:28;5.80;;;3.40;;
31438;SDS011;18062;48.872;9.220;2023-03-04T14:20:54;5.10;;;2.63;;
31438;SDS011;18062;48.872;9.220;2023-03-04T14:23:24;3.97;;;2.30;;
31438;SDS011;18062;48.872;9.220;2023-03-04T14:25:50;7.67;;;3.00;;
31438;SDS011;18062;48.872;9.220;2023-03-04T14:28:18;5.17;;;3.10;;
31438;SDS011;18062;48.872;9.220;2023-03-04T14:30:51;3.70;;;2.53;;
31438;SDS011;18062;48.872;9.220;2023-03-04T14:33:19;3.63;;;2.77;;
31438;SDS011;18062;48.872;9.220;2023-03-04T14:35:46;7.03;;;3.33;;
31438;SDS011;18062;48.872;9.220;2023-03-04T14:38:29;5.17;;;2.33;;
31438;SDS011;18062;48.872;9.220;2023-03-04T14:43:23;4.30;;;2.90;;
31438;SDS011;18062;48.872;9.220;2023-03-04T14:45:53;4.73;;;2.53;;
31438;SDS011;18062;48.872;9.220;2023-03-04T14:48:23;3.07;;;1.87;;
31438;SDS011;18062;48.872;9.220;2023-03-04T14:50:51;4.90;;;2.87;;
31438;SDS011;18062;48.872;9.220;2023-03-04T14:53:18;4.33;;;2.63;;
31438;SDS011;18062;48.872;9.220;2023-03-04T14:56:00;5.20;;;2.53;;
31438;SDS011;18062;48.872;9.220;2023-03-04T14:58:28;5.30;;;3.33;;
31438;SDS011;18062;48.872;9.220;2023-03-04T15:03:39;2.97;;;2.43;;
31438;SDS011;18062;48.872;9.220;2023-03-04T15:06:17;6.07;;;2.63;;
31438;SDS011;18062;48.872;9.220;2023-03-04T15:08:44;5.33;;;2.17;;
31438;SDS011;18062;48.872;9.220;2023-03-04T15:11:19;4.27;;;3.03;;
31438;SDS011;18062;48.872;9.220;2023-03-04T15:13:47;3.80;;;2.13;;
31438;SDS011;18062;48.872;9.220;2023-03-04T15:16:14;8.27;;;2.13;;
31438;SDS011;18062;48.872;9.220;2023-03-04T15:18:57;2.17;;;1.77;;
31438;SDS011;18062;48.872;9.220;2023-03-04T15:21:32;6.30;;;3.93;;
31438;SDS011;18062;48.872;9.220;2023-03-04T15:23:58;6.07;;;2.93;;
31438;SDS011;18062;48.872;9.220;2023-03-04T15:26:24;5.03;;;2.50;;
31438;SDS011;18062;48.872;9.220;2023-03-04T15:28:51;2.53;;;2.23;;
31438;SDS011;18062;48.872;9.220;2023-03-04T15:31:18;3.90;;;2.63;;
31438;SDS011;18062;48.872;9.220;2023-03-04T15:33:45;3.67;;;2.63;;
31438;SDS011;18062;48.872;9.220;2023-03-04T15:36:13;8.87;;;3.37;;
31438;SDS011;18062;48.872;9.220;2023-03-04T15:38:40;3.43;;;2.27;;
31438;SDS011;18062;48.872;9.220;2023-03-04T15:41:10;4.83;;;2.73;;
31438;SDS011;18062;48.872;9.220;2023-03-04T15:43:37;4.90;;;3.37;;
31438;SDS011;18062;48.872;9.220;2023-03-04T15:46:03;3.00;;;2.17;;
31438;SDS011;18062;48.872;9.220;2023-03-04T15:48:29;4.47;;;2.10;;
31438;SDS011;18062;48.872;9.220;2023-03-04T15:50:56;3.87;;;2.30;;
31438;SDS011;18062;48.872;9.220;2023-03-04T15:55:48;4.90;;;2.47;;
31438;SDS011;18062;48.872;9.220;2023-03-04T15:58:14;4.83;;;1.73;;
31438;SDS011;18062;48.872;9.220;2023-03-04T16:00:40;2.93;;;1.83;;
31438;SDS011;18062;48.872;9.220;2023-03-04T16:03:09;4.10;;;2.33;;
31438;SDS011;18062;48.872;9.220;2023-03-04T16:05:37;4.30;;;1.90;;
31438;SDS011;18062;48.872;9.220;2023-03-04T16:08:03;5.20;;;2.37;;
31438;SDS011;18062;48.872;9.220;2023-03-04T16:10:29;5.97;;;1.90;;
31438;SDS011;18062;48.872;9.220;2023-03-04T16:12:56;4.50;;;2.17;;
31438;SDS011;18062;48.872;9.220;2023-03-04T16:15:23;10.77;;;3.20;;
31438;SDS011;18062;48.872;9.220;2023-03-04T16:17:49;3.27;;;2.33;;
31438;SDS011;18062;48.872;9.220;2023-03-04T16:20:17;3.70;;;2.03;;
31438;SDS011;18062;48.872;9.220;2023-03-04T16:22:47;2.53;;;1.47;;
31438;SDS011;18062;48.872;9.220;2023-03-04T16:25:15;3.53;;;2.00;;
31438;SDS011;18062;48.872;9.220;2023-03-04T16:27:41;5.43;;;1.90;;
31438;SDS011;18062;48.872;9.220;2023-03-04T16:30:12;2.80;;;1.90;;
31438;SDS011;18062;48.872;9.220;2023-03-04T16:32:39;7.70;;;1.83;;
31438;SDS011;18062;48.872;9.220;2023-03-04T16:35:05;3.53;;;1.17;;
31438;SDS011;18062;48.872;9.220;2023-03-04T16:37:31;2.27;;;1.73;;
31438;SDS011;18062;48.872;9.220;2023-03-04T16:39:57;5.27;;;3.00;;
31438;SDS011;18062;48.872;9.220;2023-03-04T16:42:24;5.37;;;1.40;;
31438;SDS011;18062;48.872;9.220;2023-03-04T16:44:51;3.60;;;2.33;;